Time;durP1;ratioP1;P1;durP2;ratioP2;P2;SDS_P1;SDS_P2;PMS_P1;PMS_P2;Temp;Humidity;BMP_temperature;BMP_pressure;BME280_temperature;BME280_humidity;BME280_pressure;Samples;Min_cycle;Max_cycle;Signal;HPM_P1;HPM_P2
2021/06/30 00:00:56;;;;;;;;;;;;;;;;;;4946713;28;19925;-85
2021/06/30 00:03:22;;;;;;;;;;;;;;;;;;4950755;28;19921;-85
2021/06/30 00:05:48;;;;;;;;;;;;;;;;;;4947494;28;19957;-86
2021/06/30 00:08:14;;;;;;;;;;;;;;;;;;4951442;28;19985;-85
2021/06/30 00:10:42;;;;;;;;;;;;;;;;;;4950423;28;20362;-85
2021/06/30 00:13:08;;;;;;;;;;;;;;;;;;4950657;28;19922;-85
2021/06/30 00:15:34;;;;;;;;;;;;;;;;;;4946087;28;20021;-86
2021/06/30 00:18:02;;;;;;;;;;;;;;;;;;4948929;28;19915;-84
2021/06/30 00:20:28;;;;;;;;;;;;;;;;;;4972614;28;20373;-86
2021/06/30 00:22:54;;;;;;;;;;;;;;;;;;4949987;28;19981;-85
2021/06/30 00:25:25;;;;;;;;;;;;;;;;;;4946670;28;19922;-85
2021/06/30 00:27:51;;;;;;;;;;;;;;;;;;4950184;28;20002;-85
2021/06/30 00:30:20;;;;;;;;;;;;;;;;;;4932156;29;19922;-86
2021/06/30 00:32:48;;;;;;;;;;;;;;;;;;4935420;29;19919;-86
2021/06/30 00:35:14;;;;;;;;;;;;;;;;;;4934597;29;19914;-85
2021/06/30 00:37:40;;;;;;;;;;;;;;;;;;4931790;29;20331;-86
2021/06/30 00:40:06;;;;;;;;;;;;;;;;;;4931506;28;20281;-86
2021/06/30 00:42:32;;;;;;;;;;;;;;;;;;4935846;29;19962;-85
2021/06/30 00:44:59;;;;;;;;;;;;;;;;;;4932665;28;19922;-85
2021/06/30 00:47:25;;;;;;;;;;;;;;;;;;4947975;28;19925;-87
2021/06/30 00:49:51;;;;;;;;;;;;;;;;;;4935553;28;19918;-86
2021/06/30 00:52:19;;;;;;;;;;;;;;;;;;4934986;29;20362;-85
2021/06/30 00:54:48;;;;;;;;;;;;;;;;;;4932596;29;19961;-86
2021/06/30 00:57:14;;;;;;;;;;;;;;;;;;4928521;28;19915;-85
2021/06/30 00:59:40;;;;;;;;;;;;;;;;;;4931541;29;19973;-85
2021/06/30 01:02:06;;;;;;;;;;;;;;;;;;4932362;28;20165;-84
2021/06/30 01:04:32;;;;;;;;;;;;;;;;;;4932398;28;20001;-86
2021/06/30 01:06:58;;;;;;;;;;;;;;;;;;4933891;28;20000;-86
2021/06/30 01:09:24;;;;;;;;;;;;;;;;;;4932451;29;19918;-85
2021/06/30 01:11:50;;;;;;;;;;;;;;;;;;4933807;28;19923;-86
2021/06/30 01:14:16;;;;;;;;;;;;;;;;;;4934422;29;19939;-84
2021/06/30 01:16:42;;;;;;;;;;;;;;;;;;4947872;28;20377;-87
2021/06/30 01:19:09;;;;;;;;;;;;;;;;;;4937719;28;19915;-85
2021/06/30 01:21:35;;;;;;;;;;;;;;;;;;4937256;28;19972;-86
2021/06/30 01:24:01;;;;;;;;;;;;;;;;;;4931514;28;19970;-85
2021/06/30 01:26:27;;;;;;;;;;;;;;;;;;4936683;28;19923;-85
2021/06/30 01:28:53;;;;;;;;;;;;;;;;;;4936311;28;19933;-86
2021/06/30 01:31:19;;;;;;;;;;;;;;;;;;4930096;29;19914;-86
2021/06/30 01:33:45;;;;;;;;;;;;;;;;;;4945864;28;20331;-85
2021/06/30 01:36:12;;;;;;;;;;;;;;;;;;4946741;28;19923;-84
2021/06/30 01:38:38;;;;;;;;;;;;;;;;;;4932379;29;19942;-86
2021/06/30 01:41:04;;;;;;;;;;;;;;;;;;4934351;29;20001;-87
2021/06/30 01:43:30;;;;;;;;;;;;;;;;;;4933054;28;19915;-87
2021/06/30 01:45:58;;;;;;;;;;;;;;;;;;4932473;28;19990;-86
2021/06/30 01:48:24;;;;;;;;;;;;;;;;;;4947402;28;20441;-87
2021/06/30 01:50:50;;;;;;;;;;;;;;;;;;4927875;28;19923;-85
2021/06/30 01:53:16;;;;;;;;;;;;;;;;;;4930054;28;20021;-86
2021/06/30 01:55:42;;;;;;;;;;;;;;;;;;4931760;28;19914;-85
2021/06/30 01:58:08;;;;;;;;;;;;;;;;;;4935988;28;20009;-84
2021/06/30 02:00:34;;;;;;;;;;;;;;;;;;4933219;28;19918;-87
2021/06/30 02:03:01;;;;;;;;;;;;;;;;;;4946696;28;20366;-85
2021/06/30 02:05:27;;;;;;;;;;;;;;;;;;4930058;28;19926;-85
2021/06/30 02:07:53;;;;;;;;;;;;;;;;;;4930347;28;19914;-86
2021/06/30 02:10:19;;;;;;;;;;;;;;;;;;4931203;29;19930;-85
2021/06/30 02:12:45;;;;;;;;;;;;;;;;;;4944695;28;20001;-86
2021/06/30 02:15:13;;;;;;;;;;;;;;;;;;4931265;28;19976;-86
2021/06/30 02:17:39;;;;;;;;;;;;;;;;;;4936216;29;19911;-85
2021/06/30 02:20:05;;;;;;;;;;;;;;;;;;4931077;28;20032;-87
2021/06/30 02:22:32;;;;;;;;;;;;;;;;;;4931554;29;19922;-85
2021/06/30 02:24:58;;;;;;;;;;;;;;;;;;4933240;28;20007;-85
2021/06/30 02:27:24;;;;;;;;;;;;;;;;;;4933713;28;19914;-86
2021/06/30 02:29:50;;;;;;;;;;;;;;;;;;4944866;28;19929;-86
2021/06/30 02:32:16;;;;;;;;;;;;;;;;;;4947799;28;19914;-87
2021/06/30 02:34:42;;;;;;;;;;;;;;;;;;4947936;28;19929;-86
2021/06/30 02:37:09;;;;;;;;;;;;;;;;;;4951026;28;20005;-86
2021/06/30 02:39:35;;;;;;;;;;;;;;;;;;4945641;28;19922;-85
2021/06/30 02:42:01;;;;;;;;;;;;;;;;;;4965054;28;19922;-87
2021/06/30 02:44:27;;;;;;;;;;;;;;;;;;4949572;28;19945;-87
2021/06/30 02:46:53;;;;;;;;;;;;;;;;;;4943864;28;19970;-87
2021/06/30 02:49:19;;;;;;;;;;;;;;;;;;4946445;28;19927;-86
2021/06/30 02:51:45;;;;;;;;;;;;;;;;;;4947643;28;19915;-86
2021/06/30 02:54:11;;;;;;;;;;;;;;;;;;4962332;28;19926;-87
2021/06/30 02:56:37;;;;;;;;;;;;;;;;;;4947993;28;19925;-85
2021/06/30 02:59:03;;;;;;;;;;;;;;;;;;4946316;28;20271;-86
2021/06/30 03:01:29;;;;;;;;;;;;;;;;;;4944715;28;20290;-88
2021/06/30 03:03:55;;;;;;;;;;;;;;;;;;4945100;28;19930;-87
2021/06/30 03:06:21;;;;;;;;;;;;;;;;;;4950516;28;19962;-87
2021/06/30 03:08:49;;;;;;;;;;;;;;;;;;4964984;28;19915;-87
2021/06/30 03:11:16;;;;;;;;;;;;;;;;;;4951520;28;20380;-86
2021/06/30 03:13:42;;;;;;;;;;;;;;;;;;4948711;28;19981;-84
2021/06/30 03:16:08;;;;;;;;;;;;;;;;;;4950504;28;20274;-86
2021/06/30 03:18:34;;;;;;;;;;;;;;;;;;4949912;28;19915;-85
2021/06/30 03:21:00;;;;;;;;;;;;;;;;;;4951467;28;20013;-87
2021/06/30 03:23:26;;;;;;;;;;;;;;;;;;4952406;28;19921;-87
2021/06/30 03:25:52;;;;;;;;;;;;;;;;;;4949161;28;19973;-87
2021/06/30 03:28:18;;;;;;;;;;;;;;;;;;4956144;28;20055;-88
2021/06/30 03:30:44;;;;;;;;;;;;;;;;;;4950560;28;19923;-87
2021/06/30 03:33:10;;;;;;;;;;;;;;;;;;4950386;28;20033;-85
2021/06/30 03:35:36;;;;;;;;;;;;;;;;;;4966101;28;19937;-88
2021/06/30 03:38:02;;;;;;;;;;;;;;;;;;4951308;28;20002;-85
2021/06/30 03:40:29;;;;;;;;;;;;;;;;;;4953787;28;19915;-85
2021/06/30 03:42:58;;;;;;;;;;;;;;;;;;4950209;28;19918;-85
2021/06/30 03:45:24;;;;;;;;;;;;;;;;;;4945869;28;20038;-87
2021/06/30 03:47:52;;;;;;;;;;;;;;;;;;4950353;28;20001;-87
2021/06/30 03:50:18;;;;;;;;;;;;;;;;;;4949746;28;19925;-87
2021/06/30 03:52:44;;;;;;;;;;;;;;;;;;4948067;28;20294;-87
2021/06/30 03:55:10;;;;;;;;;;;;;;;;;;4948402;28;19914;-88
2021/06/30 03:57:36;;;;;;;;;;;;;;;;;;4947849;28;19918;-86
2021/06/30 04:00:03;;;;;;;;;;;;;;;;;;4966678;28;20009;-85
2021/06/30 04:02:32;;;;;;;;;;;;;;;;;;4949275;28;19924;-86
2021/06/30 04:05:02;;;;;;;;;;;;;;;;;;4954291;28;19918;-86
2021/06/30 04:07:34;;;;;;;;;;;;;;;;;;4956613;28;19977;-87
2021/06/30 04:10:05;;;;;;;;;;;;;;;;;;4949954;28;19969;-88
2021/06/30 04:12:37;;;;;;;;;;;;;;;;;;4963930;28;19973;-87
2021/06/30 04:15:03;;;;;;;;;;;;;;;;;;4958461;28;19922;-87
2021/06/30 04:17:37;;;;;;;;;;;;;;;;;;4948374;28;19946;-85
2021/06/30 04:20:03;;;;;;;;;;;;;;;;;;4946922;28;20378;-88
2021/06/30 04:22:31;;;;;;;;;;;;;;;;;;4952283;28;19923;-88
2021/06/30 04:24:58;;;;;;;;;;;;;;;;;;4951825;28;19918;-88
2021/06/30 04:27:24;;;;;;;;;;;;;;;;;;4951045;28;19926;-87
2021/06/30 04:29:50;;;;;;;;;;;;;;;;;;4949236;28;20025;-87
2021/06/30 04:32:16;;;;;;;;;;;;;;;;;;4949328;28;19966;-88
2021/06/30 04:34:43;;;;;;;;;;;;;;;;;;4948616;28;20274;-86
2021/06/30 04:37:10;;;;;;;;;;;;;;;;;;4949274;28;19915;-86
2021/06/30 04:39:36;;;;;;;;;;;;;;;;;;4956492;28;19922;-87
2021/06/30 04:42:03;;;;;;;;;;;;;;;;;;4948300;28;19923;-86
2021/06/30 04:44:29;;;;;;;;;;;;;;;;;;4948653;28;20009;-87
2021/06/30 04:46:55;;;;;;;;;;;;;;;;;;4946672;28;19923;-88
2021/06/30 04:49:21;;;;;;;;;;;;;;;;;;4947986;28;19927;-86
2021/06/30 04:51:47;;;;;;;;;;;;;;;;;;4948422;28;19922;-88
2021/06/30 04:54:14;;;;;;;;;;;;;;;;;;4945083;28;19919;-87
2021/06/30 04:56:40;;;;;;;;;;;;;;;;;;4945847;28;20277;-86
2021/06/30 04:59:06;;;;;;;;;;;;;;;;;;4944760;28;19929;-88
2021/06/30 05:01:32;;;;;;;;;;;;;;;;;;4950488;28;19923;-87
2021/06/30 05:03:58;;;;;;;;;;;;;;;;;;4949289;28;20350;-88
2021/06/30 05:06:26;;;;;;;;;;;;;;;;;;4946741;28;19922;-87
2021/06/30 05:08:52;;;;;;;;;;;;;;;;;;4948865;28;20347;-87
2021/06/30 05:11:22;;;;;;;;;;;;;;;;;;4950542;28;19937;-88
2021/06/30 05:13:50;;;;;;;;;;;;;;;;;;4944267;28;19918;-87
2021/06/30 05:16:24;;;;;;;;;;;;;;;;;;4950677;28;20025;-86
2021/06/30 05:18:57;;;;;;;;;;;;;;;;;;4945007;28;19915;-85
2021/06/30 05:21:23;;;;;;;;;;;;;;;;;;4948622;28;20367;-85
2021/06/30 05:23:50;;;;;;;;;;;;;;;;;;4940431;28;19964;-86
2021/06/30 05:26:34;;;;;;;;;;;;;;;;;;4946540;28;20001;-88
2021/06/30 05:29:03;;;;;;;;;;;;;;;;;;4944001;28;19929;-88
2021/06/30 05:31:29;;;;;;;;;;;;;;;;;;4941101;28;20025;-87
2021/06/30 05:33:58;;;;;;;;;;;;;;;;;;4959384;28;20374;-86
2021/06/30 05:36:27;;;;;;;;;;;;;;;;;;4946493;28;19915;-86
2021/06/30 05:38:54;;;;;;;;;;;;;;;;;;4938037;28;19922;-88
2021/06/30 05:41:22;;;;;;;;;;;;;;;;;;4945291;28;19929;-87
2021/06/30 05:43:50;;;;;;;;;;;;;;;;;;4941753;28;19954;-86
2021/06/30 05:46:19;;;;;;;;;;;;;;;;;;4948278;28;19914;-87
2021/06/30 05:48:47;;;;;;;;;;;;;;;;;;4949860;28;19914;-87
2021/06/30 05:51:13;;;;;;;;;;;;;;;;;;4947973;28;19919;-88
2021/06/30 05:53:50;;;;;;;;;;;;;;;;;;4948157;28;20434;-87
2021/06/30 05:56:18;;;;;;;;;;;;;;;;;;4949777;28;19918;-87
2021/06/30 05:59:04;;;;;;;;;;;;;;;;;;4949319;28;19921;-88
2021/06/30 06:01:32;;;;;;;;;;;;;;;;;;4941250;28;19915;-87
2021/06/30 06:03:59;;;;;;;;;;;;;;;;;;4944201;28;19922;-87
2021/06/30 06:06:28;;;;;;;;;;;;;;;;;;4964502;28;19922;-87
2021/06/30 06:08:54;;;;;;;;;;;;;;;;;;4946007;28;20009;-88
2021/06/30 06:11:28;;;;;;;;;;;;;;;;;;4946585;28;20263;-88
2021/06/30 06:13:57;;;;;;;;;;;;;;;;;;4948356;28;19919;-88
2021/06/30 06:16:32;;;;;;;;;;;;;;;;;;4946957;28;20006;-88
2021/06/30 06:19:01;;;;;;;;;;;;;;;;;;4941779;28;19918;-88
2021/06/30 06:24:22;;;;;;;;;;;;;;;;;;4944192;28;20039;-85
2021/06/30 06:26:56;;;;;;;;;;;;;;;;;;4942480;28;19927;-86
2021/06/30 06:29:31;;;;;;;;;;;;;;;;;;4947036;28;19930;-88
2021/06/30 06:31:59;;;;;;;;;;;;;;;;;;4945302;28;19915;-86
2021/06/30 06:37:15;;;;;;;;;;;;;;;;;;4945861;28;19914;-87
2021/06/30 06:39:51;;;;;;;;;;;;;;;;;;4946715;28;19923;-87
2021/06/30 06:42:31;;;;;;;;;;;;;;;;;;;;;
2021/06/30 06:44:59;;;;;;;;;;;;;;;;;;4942827;28;19928;-88
2021/06/30 06:47:41;;;;;;;;;;;;;;;;;;4947025;28;19918;-87
2021/06/30 06:50:07;;;;;;;;;;;;;;;;;;4942166;28;22166;-89
2021/06/30 06:52:39;;;;;;;;;;;;;;;;;;4948186;28;20593;-87
2021/06/30 06:55:10;;;;;;;;;;;;;;;;;;4946120;28;19922;-87
2021/06/30 06:57:36;;;;;;;;;;;;;;;;;;4944349;28;19921;-88
2021/06/30 07:00:05;;;;;;;;;;;;;;;;;;4940410;28;19918;-85
2021/06/30 07:02:34;;;;;;;;;;;;;;;;;;4945691;28;19922;-87
2021/06/30 07:05:03;;;;;;;;;;;;;;;;;;4945973;28;19930;-87
2021/06/30 07:07:29;;;;;;;;;;;;;;;;;;4953226;28;20354;-87
2021/06/30 07:09:58;;;;;;;;;;;;;;;;;;4940652;28;20322;-85
2021/06/30 07:12:26;;;;;;;;;;;;;;;;;;4950714;28;19985;-86
2021/06/30 07:15:00;;;;;;;;;;;;;;;;;;4958191;28;19914;-84
2021/06/30 07:17:26;;;;;;;;;;;;;;;;;;4947298;28;19921;-85
2021/06/30 07:19:55;;;;;;;;;;;;;;;;;;4944075;28;19920;-83
2021/06/30 07:22:22;;;;;;;;;;;;;;;;;;4959492;28;19914;-83
2021/06/30 07:24:49;;;;;;;;;;;;;;;;;;4938252;28;19918;-81
2021/06/30 07:27:16;;;;;;;;;;;;;;;;;;4943969;28;20002;-83
2021/06/30 07:29:43;;;;;;;;;;;;;;;;;;4944432;28;20029;-84
2021/06/30 07:32:12;;;;;;;;;;;;;;;;;;4944153;28;19997;-83
2021/06/30 07:34:42;;;;;;;;;;;;;;;;;;4944431;28;19925;-84
2021/06/30 07:37:10;;;;;;;;;;;;;;;;;;4942224;28;19930;-83
2021/06/30 07:39:37;;;;;;;;;;;;;;;;;;4942273;28;19954;-82
2021/06/30 07:45:02;;;;;;;;;;;;;;;;;;4944356;28;19926;-82
2021/06/30 07:47:43;;;;;;;;;;;;;;;;;;4943678;28;19921;-83
2021/06/30 07:50:22;;;;;;;;;;;;;;;;;;4944768;28;20309;-81
2021/06/30 07:52:52;;;;;;;;;;;;;;;;;;4945800;28;19919;-83
2021/06/30 07:58:17;;;;;;;;;;;;;;;;;;4935216;28;19949;-82
2021/06/30 08:00:46;;;;;;;;;;;;;;;;;;4941721;28;20349;-82
2021/06/30 08:03:21;;;;;;;;;;;;;;;;;;4941483;28;19929;-83
2021/06/30 08:05:49;;;;;;;;;;;;;;;;;;4939823;28;20446;-83
2021/06/30 08:08:19;;;;;;;;;;;;;;;;;;4945683;28;20365;-82
2021/06/30 08:10:48;;;;;;;;;;;;;;;;;;4949328;28;20355;-84
2021/06/30 08:13:16;;;;;;;;;;;;;;;;;;4943943;28;19915;-83
2021/06/30 08:15:43;;;;;;;;;;;;;;;;;;4959310;28;19922;-84
2021/06/30 08:18:10;;;;;;;;;;;;;;;;;;4946298;28;19922;-84
2021/06/30 08:20:38;;;;;;;;;;;;;;;;;;4946507;29;20021;-85
2021/06/30 08:23:04;;;;;;;;;;;;;;;;;;4947988;28;19918;-84
2021/06/30 08:25:30;;;;;;;;;;;;;;;;;;4949551;28;20363;-83
2021/06/30 08:27:59;;;;;;;;;;;;;;;;;;4944047;28;19922;-85
2021/06/30 08:30:32;;;;;;;;;;;;;;;;;;4928167;28;20005;-84
2021/06/30 08:32:59;;;;;;;;;;;;;;;;;;4949598;28;19926;-85
2021/06/30 08:35:25;;;;;;;;;;;;;;;;;;4929940;28;19934;-86
2021/06/30 08:37:54;;;;;;;;;;;;;;;;;;4924108;28;19915;-84
2021/06/30 08:40:20;;;;;;;;;;;;;;;;;;4949724;28;19914;-84
2021/06/30 08:42:46;;;;;;;;;;;;;;;;;;4950099;28;20035;-84
2021/06/30 08:45:12;;;;;;;;;;;;;;;;;;4930930;29;19918;-83
2021/06/30 08:47:38;;;;;;;;;;;;;;;;;;4931898;29;20340;-85
2021/06/30 08:50:05;;;;;;;;;;;;;;;;;;4930407;28;19922;-83
2021/06/30 08:52:31;;;;;;;;;;;;;;;;;;4950216;28;19993;-84
2021/06/30 08:54:58;;;;;;;;;;;;;;;;;;4934972;28;20403;-83
2021/06/30 08:57:24;;;;;;;;;;;;;;;;;;4929701;28;19918;-84
2021/06/30 08:59:50;;;;;;;;;;;;;;;;;;4930812;28;19914;-83
2021/06/30 09:02:16;;;;;;;;;;;;;;;;;;4931745;28;20005;-84
2021/06/30 09:04:43;;;;;;;;;;;;;;;;;;4933239;29;19919;-82
2021/06/30 09:07:09;;;;;;;;;;;;;;;;;;4927638;28;19918;-83
2021/06/30 09:09:35;;;;;;;;;;;;;;;;;;4930817;29;19915;-83
2021/06/30 09:12:06;;;;;;;;;;;;;;;;;;4927624;28;19919;-83
2021/06/30 09:14:36;;;;;;;;;;;;;;;;;;4928545;28;19922;-84
2021/06/30 09:17:05;;;;;;;;;;;;;;;;;;4923929;29;20381;-85
2021/06/30 09:19:31;;;;;;;;;;;;;;;;;;4933748;29;19921;-85
2021/06/30 09:21:57;;;;;;;;;;;;;;;;;;4949331;28;20421;-85
2021/06/30 09:24:26;;;;;;;;;;;;;;;;;;4928314;29;19922;-85
2021/06/30 09:26:52;;;;;;;;;;;;;;;;;;4929382;28;19925;-85
2021/06/30 09:29:18;;;;;;;;;;;;;;;;;;4941321;28;19929;-86
2021/06/30 09:31:44;;;;;;;;;;;;;;;;;;4945715;28;19962;-84
2021/06/30 09:34:10;;;;;;;;;;;;;;;;;;4947447;28;20012;-86
2021/06/30 09:36:36;;;;;;;;;;;;;;;;;;4948658;28;20001;-85
2021/06/30 09:39:02;;;;;;;;;;;;;;;;;;4944940;28;20754;-84
2021/06/30 09:41:28;;;;;;;;;;;;;;;;;;4944551;28;19918;-84
2021/06/30 09:43:54;;;;;;;;;;;;;;;;;;4944224;28;19926;-84
2021/06/30 09:46:20;;;;;;;;;;;;;;;;;;4948664;28;19919;-85
2021/06/30 09:48:49;;;;;;;;;;;;;;;;;;4945762;28;20005;-84
2021/06/30 09:51:15;;;;;;;;;;;;;;;;;;4945963;28;19915;-85
2021/06/30 09:53:44;;;;;;;;;;;;;;;;;;4944580;28;19924;-84
2021/06/30 09:56:10;;;;;;;;;;;;;;;;;;4941085;28;19929;-84
2021/06/30 09:58:36;;;;;;;;;;;;;;;;;;4947879;28;20001;-83
2021/06/30 10:01:02;;;;;;;;;;;;;;;;;;4960379;28;19977;-84
2021/06/30 10:03:28;;;;;;;;;;;;;;;;;;4944842;28;19929;-85
2021/06/30 10:05:54;;;;;;;;;;;;;;;;;;4945861;28;19926;-85
2021/06/30 10:08:20;;;;;;;;;;;;;;;;;;4947381;28;19918;-84
2021/06/30 10:10:47;;;;;;;;;;;;;;;;;;4945412;28;19915;-84
2021/06/30 10:13:13;;;;;;;;;;;;;;;;;;4945359;28;20358;-84
2021/06/30 10:15:40;;;;;;;;;;;;;;;;;;4941309;28;19915;-83
2021/06/30 10:18:06;;;;;;;;;;;;;;;;;;4944000;28;19922;-84
2021/06/30 10:20:32;;;;;;;;;;;;;;;;;;4945255;28;19921;-83
2021/06/30 10:22:58;;;;;;;;;;;;;;;;;;4940000;28;19923;-84
2021/06/30 10:25:24;;;;;;;;;;;;;;;;;;4949213;28;19918;-85
2021/06/30 10:27:50;;;;;;;;;;;;;;;;;;4942362;28;19973;-84
2021/06/30 10:30:16;;;;;;;;;;;;;;;;;;4944761;28;19918;-83
2021/06/30 10:32:42;;;;;;;;;;;;;;;;;;4933734;29;20515;-83
2021/06/30 10:35:08;;;;;;;;;;;;;;;;;;4945439;28;19968;-83
2021/06/30 10:37:37;;;;;;;;;;;;;;;;;;4926363;28;19918;-83
2021/06/30 10:40:03;;;;;;;;;;;;;;;;;;4945884;28;19943;-83
2021/06/30 10:42:38;;;;;;;;;;;;;;;;;;;;;
2021/06/30 10:44:59;;;;;;;;;;;;;;;;;;4947490;28;20492;-83
2021/06/30 10:47:25;;;;;;;;;;;;;;;;;;4949293;28;20453;-83
2021/06/30 10:49:51;;;;;;;;;;;;;;;;;;4929415;28;19919;-82
2021/06/30 10:52:17;;;;;;;;;;;;;;;;;;4949038;28;20377;-83
2021/06/30 10:54:43;;;;;;;;;;;;;;;;;;4944300;28;19911;-85
2021/06/30 10:57:09;;;;;;;;;;;;;;;;;;4928367;29;19922;-83
2021/06/30 10:59:35;;;;;;;;;;;;;;;;;;4946555;28;20366;-85
2021/06/30 11:02:01;;;;;;;;;;;;;;;;;;4930987;29;19929;-86
2021/06/30 11:04:30;;;;;;;;;;;;;;;;;;4931476;28;19919;-85
2021/06/30 11:06:56;;;;;;;;;;;;;;;;;;4930366;28;20001;-85
2021/06/30 11:09:22;;;;;;;;;;;;;;;;;;4929282;29;19914;-85
2021/06/30 11:11:48;;;;;;;;;;;;;;;;;;4929773;28;19947;-86
2021/06/30 11:14:15;;;;;;;;;;;;;;;;;;4930338;29;20335;-85
2021/06/30 11:19:07;;;;;;;;;;;;;;;;;;4948484;28;19926;-85
2021/06/30 11:21:33;;;;;;;;;;;;;;;;;;4933712;29;19966;-85
2021/06/30 11:23:59;;;;;;;;;;;;;;;;;;4933880;29;19918;-84
2021/06/30 11:26:25;;;;;;;;;;;;;;;;;;4933293;29;20275;-85
2021/06/30 11:28:51;;;;;;;;;;;;;;;;;;4936052;28;20025;-84
2021/06/30 11:31:18;;;;;;;;;;;;;;;;;;4934451;29;19925;-85
2021/06/30 11:33:51;;;;;;;;;;;;;;;;;;4933518;29;19915;-85
2021/06/30 11:36:17;;;;;;;;;;;;;;;;;;4936235;29;19921;-84
2021/06/30 11:38:43;;;;;;;;;;;;;;;;;;4940615;29;19918;-84
2021/06/30 11:41:12;;;;;;;;;;;;;;;;;;4933605;29;19922;-85
2021/06/30 11:43:43;;;;;;;;;;;;;;;;;;4936637;29;20001;-85
2021/06/30 11:46:14;;;;;;;;;;;;;;;;;;4935107;29;19922;-86
2021/06/30 11:48:41;;;;;;;;;;;;;;;;;;4937767;29;19918;-87
2021/06/30 11:51:07;;;;;;;;;;;;;;;;;;4934514;29;19918;-85
2021/06/30 11:53:33;;;;;;;;;;;;;;;;;;4942826;28;19921;-86
2021/06/30 11:55:59;;;;;;;;;;;;;;;;;;4933640;28;19914;-85
2021/06/30 11:58:25;;;;;;;;;;;;;;;;;;4930741;29;19923;-85
2021/06/30 12:00:51;;;;;;;;;;;;;;;;;;4922086;28;19918;-85
2021/06/30 12:03:17;;;;;;;;;;;;;;;;;;4943491;28;19915;-83
2021/06/30 12:05:43;;;;;;;;;;;;;;;;;;4928140;29;19929;-85
2021/06/30 12:08:10;;;;;;;;;;;;;;;;;;4931589;28;20262;-83
2021/06/30 12:10:46;;;;;;;;;;;;;;;;;;;;;
2021/06/30 12:13:12;;;;;;;;;;;;;;;;;;4944043;28;19923;-86
2021/06/30 12:15:39;;;;;;;;;;;;;;;;;;4946389;28;19911;-85
2021/06/30 12:18:06;;;;;;;;;;;;;;;;;;4932703;28;20785;-85
2021/06/30 12:20:32;;;;;;;;;;;;;;;;;;4942270;28;19962;-84
2021/06/30 12:22:59;;;;;;;;;;;;;;;;;;4944305;28;19966;-86
2021/06/30 12:25:34;;;;;;;;;;;;;;;;;;4928573;29;19926;-85
2021/06/30 12:28:03;;;;;;;;;;;;;;;;;;4927249;29;19958;-84
2021/06/30 12:30:35;;;;;;;;;;;;;;;;;;4929073;28;20001;-86
2021/06/30 12:33:04;;;;;;;;;;;;;;;;;;4943079;28;19914;-84
2021/06/30 12:35:30;;;;;;;;;;;;;;;;;;4941273;28;19929;-84
2021/06/30 12:38:00;;;;;;;;;;;;;;;;;;4946508;28;21419;-85
2021/06/30 12:40:28;;;;;;;;;;;;;;;;;;4946111;28;19926;-85
2021/06/30 12:42:55;;;;;;;;;;;;;;;;;;4929343;28;19915;-85
2021/06/30 12:45:23;;;;;;;;;;;;;;;;;;4932315;28;19928;-86
2021/06/30 12:47:56;;;;;;;;;;;;;;;;;;4930768;28;19921;-85
2021/06/30 12:50:26;;;;;;;;;;;;;;;;;;4930321;29;19918;-86
2021/06/30 12:52:53;;;;;;;;;;;;;;;;;;4931039;29;19914;-86
2021/06/30 12:55:20;;;;;;;;;;;;;;;;;;4933022;28;19915;-84
2021/06/30 12:57:48;;;;;;;;;;;;;;;;;;4933365;28;19918;-87
2021/06/30 13:00:19;;;;;;;;;;;;;;;;;;4944300;28;20329;-87
2021/06/30 13:02:49;;;;;;;;;;;;;;;;;;4934931;29;20398;-85
2021/06/30 13:05:15;;;;;;;;;;;;;;;;;;4933385;29;19949;-86
2021/06/30 13:07:42;;;;;;;;;;;;;;;;;;4931597;28;19936;-88
2021/06/30 13:10:11;;;;;;;;;;;;;;;;;;4931063;29;19927;-89
2021/06/30 13:12:37;;;;;;;;;;;;;;;;;;4932019;29;20389;-88
2021/06/30 13:15:04;;;;;;;;;;;;;;;;;;4931228;29;19915;-88
2021/06/30 13:17:30;;;;;;;;;;;;;;;;;;4938551;29;20376;-89
2021/06/30 13:19:57;;;;;;;;;;;;;;;;;;4944988;28;19915;-87
2021/06/30 13:22:28;;;;;;;;;;;;;;;;;;4936358;29;19946;-88
2021/06/30 13:25:08;;;;;;;;;;;;;;;;;;4930858;28;19974;-86
2021/06/30 13:27:54;;;;;;;;;;;;;;;;;;4941871;28;19918;-86
2021/06/30 13:35:50;;;;;;;;;;;;;;;;;;4943649;28;19921;-88
2021/06/30 13:38:18;;;;;;;;;;;;;;;;;;4963731;28;20369;-87
2021/06/30 13:40:44;;;;;;;;;;;;;;;;;;4947386;28;19915;-89
2021/06/30 13:43:14;;;;;;;;;;;;;;;;;;4949759;28;19930;-88
2021/06/30 13:45:43;;;;;;;;;;;;;;;;;;4949391;28;19969;-88
2021/06/30 13:48:10;;;;;;;;;;;;;;;;;;4960361;28;19918;-88
2021/06/30 13:50:41;;;;;;;;;;;;;;;;;;4949520;28;19936;-89
2021/06/30 13:53:14;;;;;;;;;;;;;;;;;;4953330;28;19922;-90
2021/06/30 13:55:52;;;;;;;;;;;;;;;;;;4956598;28;19945;-90
2021/06/30 13:58:43;;;;;;;;;;;;;;;;;;;;;
2021/06/30 14:04:14;;;;;;;;;;;;;;;;;;4959184;29;19914;-90
2021/06/30 14:09:30;;;;;;;;;;;;;;;;;;4945396;28;20342;-89
2021/06/30 14:11:59;;;;;;;;;;;;;;;;;;4949718;28;19914;-89
2021/06/30 14:14:25;;;;;;;;;;;;;;;;;;4951178;28;19915;-87
2021/06/30 14:16:55;;;;;;;;;;;;;;;;;;4947184;28;20122;-84
2021/06/30 14:19:23;;;;;;;;;;;;;;;;;;4949848;28;19927;-87
2021/06/30 14:21:49;;;;;;;;;;;;;;;;;;4949452;28;19914;-90
2021/06/30 14:24:16;;;;;;;;;;;;;;;;;;4952506;28;19914;-91
2021/06/30 14:26:43;;;;;;;;;;;;;;;;;;4950225;28;19954;-90
2021/06/30 14:29:09;;;;;;;;;;;;;;;;;;4949321;28;19926;-89
2021/06/30 14:31:35;;;;;;;;;;;;;;;;;;4951709;28;19922;-89
2021/06/30 14:34:01;;;;;;;;;;;;;;;;;;4950850;28;19922;-91
2021/06/30 14:36:27;;;;;;;;;;;;;;;;;;4948309;28;19947;-89
2021/06/30 14:38:53;;;;;;;;;;;;;;;;;;4941006;28;19969;-89
2021/06/30 14:41:19;;;;;;;;;;;;;;;;;;4942359;28;19958;-91
2021/06/30 14:43:48;;;;;;;;;;;;;;;;;;4949873;28;19958;-92
2021/06/30 14:46:14;;;;;;;;;;;;;;;;;;4959004;28;19923;-90
2021/06/30 14:48:41;;;;;;;;;;;;;;;;;;4950699;28;20382;-92
2021/06/30 14:51:08;;;;;;;;;;;;;;;;;;4967969;28;19918;-95
2021/06/30 14:53:36;;;;;;;;;;;;;;;;;;4966280;28;19922;-95
2021/06/30 14:56:04;;;;;;;;;;;;;;;;;;4970033;28;19918;-92
2021/06/30 14:58:35;;;;;;;;;;;;;;;;;;4970369;28;19974;-93
2021/06/30 15:01:03;;;;;;;;;;;;;;;;;;4960614;28;20041;-92
2021/06/30 15:03:29;;;;;;;;;;;;;;;;;;4960504;28;19923;-91
2021/06/30 15:05:55;;;;;;;;;;;;;;;;;;4964599;28;19994;-91
2021/06/30 15:08:21;;;;;;;;;;;;;;;;;;4957037;28;19914;-90
2021/06/30 15:10:47;;;;;;;;;;;;;;;;;;4956223;28;19926;-89
2021/06/30 15:13:13;;;;;;;;;;;;;;;;;;4960804;28;19914;-91
2021/06/30 15:15:41;;;;;;;;;;;;;;;;;;4968459;28;19919;-91
2021/06/30 15:18:11;;;;;;;;;;;;;;;;;;4974725;28;19943;-90
2021/06/30 15:20:44;;;;;;;;;;;;;;;;;;4976514;28;19962;-91
2021/06/30 15:23:14;;;;;;;;;;;;;;;;;;4996244;28;19942;-91
2021/06/30 15:25:42;;;;;;;;;;;;;;;;;;4971137;29;19969;-90
2021/06/30 15:28:10;;;;;;;;;;;;;;;;;;5054630;23;19926;-91
2021/06/30 15:30:36;;;;;;;;;;;;;;;;;;4957457;28;20362;-90
2021/06/30 15:33:06;;;;;;;;;;;;;;;;;;4943991;29;20000;-91
2021/06/30 15:35:40;;;;;;;;;;;;;;;;;;4948550;28;19973;-90
2021/06/30 15:38:13;;;;;;;;;;;;;;;;;;4970303;28;19915;-90
2021/06/30 15:40:42;;;;;;;;;;;;;;;;;;4944588;29;20033;-89
2021/06/30 15:43:10;;;;;;;;;;;;;;;;;;4948600;29;19922;-91
2021/06/30 15:45:36;;;;;;;;;;;;;;;;;;4949395;28;19990;-91
2021/06/30 15:48:02;;;;;;;;;;;;;;;;;;4960573;28;19938;-89
2021/06/30 15:50:28;;;;;;;;;;;;;;;;;;4946456;29;19923;-90
2021/06/30 15:52:54;;;;;;;;;;;;;;;;;;4942698;28;20404;-90
2021/06/30 15:55:39;;;;;;;;;;;;;;;;;;4948853;28;20021;-90
2021/06/30 15:58:05;;;;;;;;;;;;;;;;;;4961996;28;19942;-89
2021/06/30 16:00:33;;;;;;;;;;;;;;;;;;4946336;29;19964;-90
2021/06/30 16:02:59;;;;;;;;;;;;;;;;;;4948560;28;19965;-91
2021/06/30 16:05:29;;;;;;;;;;;;;;;;;;4949260;28;19915;-90
2021/06/30 16:07:56;;;;;;;;;;;;;;;;;;4945020;29;19945;-87
2021/06/30 16:10:22;;;;;;;;;;;;;;;;;;4965520;28;19957;-88
2021/06/30 16:12:48;;;;;;;;;;;;;;;;;;4951076;28;19922;-87
2021/06/30 16:15:20;;;;;;;;;;;;;;;;;;4935718;29;19930;-86
2021/06/30 16:17:51;;;;;;;;;;;;;;;;;;4938304;29;20372;-89
2021/06/30 16:20:17;;;;;;;;;;;;;;;;;;4938523;29;19918;-89
2021/06/30 16:22:43;;;;;;;;;;;;;;;;;;4935919;29;19998;-90
2021/06/30 16:25:13;;;;;;;;;;;;;;;;;;4939284;28;19923;-88
2021/06/30 16:27:39;;;;;;;;;;;;;;;;;;4931402;29;19930;-87
2021/06/30 16:30:05;;;;;;;;;;;;;;;;;;4931030;28;20001;-86
2021/06/30 16:32:32;;;;;;;;;;;;;;;;;;4932738;28;19946;-87
2021/06/30 16:34:59;;;;;;;;;;;;;;;;;;4947342;28;19918;-87
2021/06/30 16:37:25;;;;;;;;;;;;;;;;;;4950338;28;20343;-88
2021/06/30 16:39:51;;;;;;;;;;;;;;;;;;4932292;29;19962;-87
2021/06/30 16:45:08;;;;;;;;;;;;;;;;;;4946722;28;20278;-86
2021/06/30 16:47:34;;;;;;;;;;;;;;;;;;4951358;28;19960;-87
2021/06/30 16:50:00;;;;;;;;;;;;;;;;;;4929142;28;19993;-87
2021/06/30 16:52:29;;;;;;;;;;;;;;;;;;4924325;28;19926;-87
2021/06/30 16:54:55;;;;;;;;;;;;;;;;;;4932352;28;20417;-87
2021/06/30 16:57:24;;;;;;;;;;;;;;;;;;4948017;28;19915;-88
2021/06/30 16:59:50;;;;;;;;;;;;;;;;;;4924594;29;19922;-87
2021/06/30 17:02:16;;;;;;;;;;;;;;;;;;4925565;29;19911;-87
2021/06/30 17:04:42;;;;;;;;;;;;;;;;;;4927059;28;19946;-88
2021/06/30 17:07:08;;;;;;;;;;;;;;;;;;4925415;28;19923;-88
2021/06/30 17:09:38;;;;;;;;;;;;;;;;;;4930330;28;19911;-87
2021/06/30 17:12:05;;;;;;;;;;;;;;;;;;4929607;28;19918;-87
2021/06/30 17:14:31;;;;;;;;;;;;;;;;;;4929600;29;19938;-88
2021/06/30 17:16:57;;;;;;;;;;;;;;;;;;4925456;28;19926;-87
2021/06/30 17:19:23;;;;;;;;;;;;;;;;;;4927369;29;19985;-88